Time;durP1;ratioP1;P1;durP2;ratioP2;P2;SDS_P1;SDS_P2;PMS_P1;PMS_P2;Temp;Humidity;BMP_temperature;BMP_pressure;BME280_temperature;BME280_humidity;BME280_pressure;Samples;Min_cycle;Max_cycle;Signal;HPM_P1;HPM_P2
2022/06/04 00:01:32;;;;;;;8.87;7.47;;;13.60;99.90;;;;;;4163693;28;20395;-73
2022/06/04 00:03:32;;;;;;;7.60;6.80;;;13.60;99.90;;;;;;4163749;28;20602;-71
2022/06/04 00:05:36;;;;;;;7.40;6.60;;;13.60;99.90;;;;;;4163109;28;20181;-71
2022/06/04 00:07:38;;;;;;;7.27;6.57;;;13.70;99.90;;;;;;4163677;28;20678;-71
2022/06/04 00:15:28;;;;;;;7.80;6.97;;;13.70;99.90;;;;;;4163660;28;20242;-72
2022/06/04 00:16:37;;;;;;;7.43;6.67;;;13.70;99.90;;;;;;4163068;28;20199;-72
2022/06/04 00:18:40;;;;;;;10.90;7.43;;;13.70;99.90;;;;;;4163855;28;20260;-72
2022/06/04 00:20:41;;;;;;;8.93;7.13;;;13.70;99.90;;;;;;4163439;28;20224;-72
2022/06/04 00:22:41;;;;;;;8.43;6.77;;;13.80;99.90;;;;;;4163485;28;20644;-72
2022/06/04 00:24:43;;;;;;;7.23;6.27;;;13.70;99.90;;;;;;4176122;28;20196;-72
2022/06/04 00:26:44;;;;;;;7.60;6.53;;;13.80;99.90;;;;;;4179177;28;20187;-71
2022/06/04 00:28:48;;;;;;;7.80;6.93;;;13.70;99.90;;;;;;4179854;28;20181;-73
2022/06/04 00:30:50;;;;;;;8.60;6.87;;;13.70;99.90;;;;;;4179873;28;20187;-72
2022/06/04 00:32:50;;;;;;;9.83;6.70;;;13.80;99.90;;;;;;4179790;28;20644;-71
2022/06/04 00:34:51;;;;;;;9.73;7.47;;;13.80;99.90;;;;;;4180346;28;20215;-72
2022/06/04 00:36:52;;;;;;;11.10;8.10;;;13.80;99.90;;;;;;4179355;28;20168;-70
2022/06/04 00:38:52;;;;;;;8.27;7.40;;;13.70;99.90;;;;;;4179730;28;20214;-71
2022/06/04 00:41:17;;;;;;;7.83;7.03;;;13.60;99.90;;;;;;4179703;28;20200;-72
2022/06/04 00:43:19;;;;;;;7.87;7.07;;;13.60;99.90;;;;;;4179663;28;20196;-72
2022/06/04 00:45:35;;;;;;;8.27;7.17;;;13.60;99.90;;;;;;4179113;28;20180;-72
2022/06/04 00:47:38;;;;;;;7.80;6.83;;;13.70;99.90;;;;;;4179548;28;20263;-71
2022/06/04 00:49:39;;;;;;;9.30;6.60;;;13.70;99.90;;;;;;4179608;28;20168;-72
2022/06/04 00:51:42;;;;;;;7.90;6.87;;;13.80;99.90;;;;;;4179528;28;20241;-72
2022/06/04 00:53:43;;;;;;;7.13;6.43;;;13.80;99.90;;;;;;4179859;28;20206;-71
2022/06/04 00:56:06;;;;;;;6.43;5.83;;;13.80;99.90;;;;;;4178980;28;20886;-72
2022/06/04 00:58:29;;;;;;;8.77;6.60;;;13.80;99.90;;;;;;4179459;28;20539;-70
2022/06/04 01:00:40;;;;;;;8.30;6.80;;;13.70;99.90;;;;;;4179426;28;20250;-73
2022/06/04 01:03:07;;;;;;;7.57;6.67;;;13.70;99.90;;;;;;4178001;28;20218;-73
2022/06/04 01:05:34;;;;;;;6.97;5.97;;;13.70;99.90;;;;;;4177904;28;20520;-72
2022/06/04 01:08:03;;;;;;;7.53;6.00;;;13.70;99.90;;;;;;4178135;28;20585;-73
2022/06/04 01:10:10;;;;;;;7.53;6.43;;;13.50;99.90;;;;;;4177859;28;20173;-73
2022/06/04 01:12:49;;;;;;;7.57;6.63;;;13.50;99.90;;;;;;4177948;28;20575;-72
2022/06/04 01:15:09;;;;;;;7.40;5.83;;;13.50;99.90;;;;;;4178105;28;20235;-72
2022/06/04 01:17:17;;;;;;;7.67;6.57;;;13.50;99.90;;;;;;4178368;28;20829;-71
2022/06/04 01:19:30;;;;;;;9.00;6.60;;;13.60;99.90;;;;;;4179428;28;20551;-71
2022/06/04 01:21:42;;;;;;;8.63;6.90;;;13.60;99.90;;;;;;4178939;28;20224;-72
2022/06/04 01:24:01;;;;;;;9.90;6.73;;;13.50;99.90;;;;;;4179694;28;20188;-71
2022/06/04 01:26:20;;;;;;;8.47;6.73;;;13.60;99.90;;;;;;4178793;28;20191;-72
2022/06/04 01:28:21;;;;;;;7.87;7.07;;;13.60;99.90;;;;;;4179700;28;20179;-71
2022/06/04 01:30:41;;;;;;;8.97;7.00;;;13.60;99.90;;;;;;4179246;28;20180;-71
2022/06/04 01:32:49;;;;;;;7.57;6.60;;;13.60;99.90;;;;;;4179172;28;20666;-72
2022/06/04 01:35:04;;;;;;;12.43;6.30;;;13.60;99.90;;;;;;4179280;28;20722;-72
2022/06/04 01:37:12;;;;;;;9.70;7.07;;;13.60;99.90;;;;;;4178505;28;20212;-73
2022/06/04 01:39:19;;;;;;;8.60;6.50;;;13.60;99.90;;;;;;4178986;28;20203;-72
2022/06/04 01:41:40;;;;;;;7.50;6.47;;;13.60;99.90;;;;;;4178855;28;20242;-72
2022/06/04 01:43:49;;;;;;;13.73;6.90;;;13.70;99.90;;;;;;4179056;28;20277;-71
2022/06/04 01:45:53;;;;;;;6.97;6.30;;;13.70;99.90;;;;;;4174301;28;20168;-72
2022/06/04 01:47:57;;;;;;;8.03;6.37;;;13.70;99.90;;;;;;4162164;28;20288;-72
2022/06/04 01:50:02;;;;;;;9.50;6.63;;;13.60;99.90;;;;;;4162566;28;20543;-71
2022/06/04 01:52:14;;;;;;;8.03;7.03;;;13.70;99.90;;;;;;4161906;28;20191;-71
2022/06/04 01:54:21;;;;;;;6.70;6.10;;;13.70;99.90;;;;;;4162108;28;20197;-71
2022/06/04 01:56:28;;;;;;;8.10;6.47;;;13.70;99.90;;;;;;4162013;28;20223;-72
2022/06/04 01:58:46;;;;;;;7.53;5.97;;;13.70;99.90;;;;;;4162232;28;20627;-71
2022/06/04 02:00:57;;;;;;;6.83;5.77;;;13.80;99.90;;;;;;4162600;28;20254;-72
2022/06/04 02:03:05;;;;;;;9.40;6.30;;;13.90;99.90;;;;;;4162827;28;20181;-72
2022/06/04 02:05:12;;;;;;;7.77;5.57;;;13.90;99.90;;;;;;4161928;28;20951;-72
2022/06/04 02:07:31;;;;;;;8.07;6.10;;;13.80;99.90;;;;;;4162821;28;20215;-72
2022/06/04 02:09:34;;;;;;;8.40;6.37;;;13.80;99.90;;;;;;4162496;28;20196;-72
2022/06/04 02:11:38;;;;;;;7.50;5.60;;;13.80;99.90;;;;;;4162519;28;20548;-72
2022/06/04 02:13:40;;;;;;;7.27;5.87;;;13.90;99.90;;;;;;4162199;28;20231;-72
2022/06/04 02:16:01;;;;;;;8.27;6.00;;;13.90;99.90;;;;;;4161419;28;20757;-72
2022/06/04 02:18:03;;;;;;;8.83;5.97;;;13.90;99.90;;;;;;4162181;28;20284;-71
2022/06/04 02:20:04;;;;;;;6.67;5.97;;;14.00;99.90;;;;;;4162200;28;20652;-71
2022/06/04 02:22:04;;;;;;;6.73;6.03;;;13.90;99.90;;;;;;4162172;28;20205;-72
2022/06/04 02:24:06;;;;;;;8.27;6.03;;;13.90;99.90;;;;;;4162040;28;20219;-72
2022/06/04 02:26:07;;;;;;;7.43;6.10;;;13.80;99.90;;;;;;4164244;28;20184;-72
2022/06/04 02:28:09;;;;;;;6.67;5.73;;;13.70;99.90;;;;;;4178360;28;20254;-71
2022/06/04 02:30:12;;;;;;;6.47;5.77;;;13.80;99.90;;;;;;4178530;28;20652;-72
2022/06/04 02:32:27;;;;;;;7.73;5.57;;;13.70;99.90;;;;;;4178144;28;20566;-72
2022/06/04 02:34:51;;;;;;;6.23;5.20;;;13.70;99.90;;;;;;4174720;28;20694;-72
2022/06/04 02:37:15;;;;;;;6.70;6.00;;;13.80;99.90;;;;;;4177951;28;20681;-71
2022/06/04 02:39:37;;;;;;;7.00;6.17;;;13.80;99.90;;;;;;4178230;28;20253;-72
2022/06/04 02:41:59;;;;;;;6.80;5.73;;;14.00;99.90;;;;;;4178176;28;20218;-71
2022/06/04 02:44:15;;;;;;;7.13;5.80;;;14.00;99.90;;;;;;4178289;28;20193;-72
2022/06/04 02:46:31;;;;;;;6.33;5.50;;;13.90;99.90;;;;;;4176226;28;20924;-73
2022/06/04 02:48:41;;;;;;;7.80;5.43;;;14.00;99.90;;;;;;4177799;28;20271;-72
2022/06/04 02:51:13;;;;;;;7.07;6.17;;;14.00;99.90;;;;;;4178366;28;20188;-72
2022/06/04 02:53:15;;;;;;;8.20;6.07;;;13.90;99.90;;;;;;4178151;28;20208;-72
2022/06/04 02:55:21;;;;;;;8.33;5.30;;;14.00;99.90;;;;;;4178048;28;20188;-72
2022/06/04 02:57:24;;;;;;;6.73;5.30;;;14.10;99.90;;;;;;4178432;28;20172;-72
2022/06/04 02:59:26;;;;;;;5.67;5.07;;;14.10;99.90;;;;;;4178132;28;20188;-73
2022/06/04 03:01:29;;;;;;;8.70;5.87;;;14.20;99.90;;;;;;4178162;28;20296;-72
2022/06/04 03:03:30;;;;;;;7.63;5.40;;;14.30;99.90;;;;;;4179493;28;20241;-72
2022/06/04 03:05:30;;;;;;;6.77;4.97;;;14.30;99.90;;;;;;4180964;28;20545;-73
2022/06/04 03:07:31;;;;;;;10.50;6.20;;;14.40;99.90;;;;;;4181192;28;20199;-72
2022/06/04 03:09:31;;;;;;;6.73;5.50;;;14.50;99.90;;;;;;4181156;28;20667;-71
2022/06/04 03:11:39;;;;;;;8.67;5.60;;;14.50;99.90;;;;;;4181398;28;20187;-72
2022/06/04 03:13:39;;;;;;;9.87;6.53;;;14.40;99.90;;;;;;4181481;28;20277;-71
2022/06/04 03:15:40;;;;;;;9.43;6.53;;;14.50;99.90;;;;;;4180650;28;20196;-73
2022/06/04 03:17:44;;;;;;;9.73;6.10;;;14.60;99.90;;;;;;4180722;28;20563;-72
2022/06/04 03:19:45;;;;;;;6.63;4.53;;;14.60;99.90;;;;;;4181007;28;20187;-72
2022/06/04 03:21:45;;;;;;;10.93;5.97;;;14.80;99.90;;;;;;4181023;28;20248;-72
2022/06/04 03:23:46;;;;;;;8.27;5.80;;;14.90;99.90;;;;;;4181346;28;21043;-71
2022/06/04 03:25:46;;;;;;;6.87;6.17;;;14.80;99.90;;;;;;4180251;28;20546;-71
2022/06/04 03:27:47;;;;;;;7.37;5.70;;;14.60;99.90;;;;;;4180967;28;20659;-72
2022/06/04 03:29:48;;;;;;;6.87;5.97;;;14.60;99.90;;;;;;4181408;28;20177;-71
2022/06/04 03:31:49;;;;;;;8.33;6.33;;;14.50;99.90;;;;;;4179359;28;20242;-73
2022/06/04 03:33:49;;;;;;;8.83;5.80;;;14.50;99.90;;;;;;4180753;28;20957;-72
2022/06/04 03:35:50;;;;;;;7.80;6.53;;;14.30;99.90;;;;;;4180045;28;20215;-72
2022/06/04 03:37:51;;;;;;;10.37;6.83;;;14.20;99.90;;;;;;4180790;28;20230;-72
2022/06/04 03:39:52;;;;;;;10.63;6.53;;;14.30;99.90;;;;;;4180740;28;20180;-72
2022/06/04 03:41:52;;;;;;;10.57;6.97;;;14.30;99.90;;;;;;4180418;28;20229;-71
2022/06/04 03:43:53;;;;;;;8.10;6.17;;;14.40;99.90;;;;;;4180476;28;20197;-71
2022/06/04 03:45:54;;;;;;;10.53;5.93;;;14.50;99.90;;;;;;4179934;28;20226;-72
2022/06/04 03:47:56;;;;;;;7.67;5.83;;;14.50;99.90;;;;;;4180340;28;20608;-72
2022/06/04 03:49:56;;;;;;;6.30;5.67;;;14.60;99.90;;;;;;4170486;28;21073;-71
2022/06/04 03:51:57;;;;;;;8.10;5.73;;;14.70;99.90;;;;;;4163897;28;20192;-72
2022/06/04 03:53:58;;;;;;;6.90;5.30;;;14.80;99.90;;;;;;4163759;28;20199;-71
2022/06/04 03:55:58;;;;;;;8.37;5.90;;;14.90;99.90;;;;;;4163251;28;20181;-72
2022/06/04 03:57:59;;;;;;;7.07;6.10;;;14.80;99.90;;;;;;4163602;28;20657;-72
2022/06/04 03:59:59;;;;;;;7.20;5.70;;;14.80;99.90;;;;;;4163749;28;20247;-72
2022/06/04 04:02:00;;;;;;;8.80;6.53;;;14.90;99.90;;;;;;4163618;28;20298;-72
2022/06/04 04:04:01;;;;;;;10.73;6.50;;;14.80;99.90;;;;;;4163447;28;20615;-73
2022/06/04 04:06:02;;;;;;;6.93;5.40;;;14.90;99.90;;;;;;4163089;28;20184;-72
2022/06/04 04:08:06;;;;;;;8.90;5.67;;;15.00;99.90;;;;;;4162421;28;20692;-72
2022/06/04 04:10:09;;;;;;;7.10;5.23;;;15.00;99.90;;;;;;4163802;28;20262;-72
2022/06/04 04:12:09;;;;;;;8.30;5.37;;;15.10;99.90;;;;;;4163887;28;20181;-71
2022/06/04 04:14:10;;;;;;;10.27;5.93;;;15.00;99.90;;;;;;4163624;28;20278;-71
2022/06/04 04:16:11;;;;;;;8.50;5.40;;;14.90;99.90;;;;;;4163146;28;20715;-73
2022/06/04 04:18:12;;;;;;;8.00;4.83;;;14.90;99.90;;;;;;4163586;28;20327;-73
2022/06/04 04:20:22;;;;;;;8.03;5.57;;;15.10;99.90;;;;;;4163109;28;20185;-71
2022/06/04 04:22:24;;;;;;;7.43;4.33;;;15.30;99.90;;;;;;4163239;28;20208;-72
2022/06/04 04:24:24;;;;;;;7.80;6.10;;;15.40;99.90;;;;;;4163328;28;20308;-74
2022/06/04 04:26:25;;;;;;;6.33;4.90;;;15.50;99.90;;;;;;4162802;28;20193;-72
2022/06/04 04:28:26;;;;;;;7.53;5.03;;;15.60;99.90;;;;;;4163521;28;20181;-72
2022/06/04 04:30:29;;;;;;;7.60;5.63;;;15.60;99.90;;;;;;4161911;28;20276;-71
2022/06/04 04:32:29;;;;;;;7.07;4.53;;;15.60;99.90;;;;;;4163621;28;20219;-71
2022/06/04 04:34:30;;;;;;;7.80;4.43;;;15.50;99.90;;;;;;4163263;28;20201;-71
2022/06/04 04:36:31;;;;;;;6.40;5.17;;;15.60;99.90;;;;;;4168300;28;20548;-72
2022/06/04 04:38:31;;;;;;;5.60;4.37;;;15.70;99.90;;;;;;4179932;28;20180;-72
2022/06/04 04:40:32;;;;;;;5.43;4.23;;;15.70;99.90;;;;;;4176482;28;20275;-72
2022/06/04 04:42:33;;;;;;;5.83;4.13;;;15.70;99.90;;;;;;4164886;28;20581;-72
2022/06/04 04:44:33;;;;;;;6.90;4.37;;;15.60;99.90;;;;;;4173583;28;20204;-72
2022/06/04 04:46:34;;;;;;;6.23;5.70;;;15.60;99.90;;;;;;4178516;28;20180;-72
2022/06/04 04:48:35;;;;;;;6.07;5.33;;;15.50;99.90;;;;;;4179336;28;20255;-72
2022/06/04 04:50:38;;;;;;;8.13;7.33;;;15.40;99.90;;;;;;4179251;28;20235;-72
2022/06/04 04:52:39;;;;;;;7.67;6.53;;;15.40;99.90;;;;;;4179062;28;20559;-72
2022/06/04 04:54:40;;;;;;;9.60;8.53;;;15.30;99.90;;;;;;4179233;28;20224;-72
2022/06/04 04:56:40;;;;;;;11.50;10.60;;;15.30;99.90;;;;;;4178423;28;20188;-72
2022/06/04 04:58:41;;;;;;;8.23;7.30;;;15.30;99.90;;;;;;4179320;28;20246;-71
2022/06/04 05:00:45;;;;;;;8.97;7.90;;;15.30;99.90;;;;;;4179233;28;20176;-73
2022/06/04 05:02:46;;;;;;;10.87;9.97;;;15.30;99.90;;;;;;4179131;28;20187;-72
2022/06/04 05:04:46;;;;;;;9.47;8.67;;;15.30;99.90;;;;;;4178944;28;20200;-72
2022/06/04 05:06:47;;;;;;;7.13;5.23;;;15.30;99.90;;;;;;4178644;28;20173;-71
2022/06/04 05:08:49;;;;;;;8.23;5.30;;;15.30;99.90;;;;;;4178997;28;20180;-71
2022/06/04 05:10:49;;;;;;;5.30;4.80;;;15.20;99.90;;;;;;4179021;28;20259;-72
2022/06/04 05:12:52;;;;;;;6.13;4.87;;;15.30;99.90;;;;;;4178912;28;20888;-72
2022/06/04 05:14:52;;;;;;;7.67;4.40;;;15.30;99.90;;;;;;4178976;28;20203;-72
2022/06/04 05:16:53;;;;;;;4.73;3.40;;;15.20;99.90;;;;;;4178359;28;20180;-72
2022/06/04 05:18:53;;;;;;;6.80;4.80;;;15.20;99.90;;;;;;4178842;28;20620;-72
2022/06/04 05:20:54;;;;;;;6.03;4.00;;;15.10;99.90;;;;;;4178668;28;20204;-71
2022/06/04 05:22:54;;;;;;;8.20;4.50;;;15.10;99.90;;;;;;4178785;28;20180;-72
2022/06/04 05:24:55;;;;;;;4.30;3.10;;;15.10;99.90;;;;;;4178726;28;20287;-73
2022/06/04 05:26:56;;;;;;;4.27;2.83;;;15.10;99.90;;;;;;4177618;28;20644;-72
2022/06/04 05:28:56;;;;;;;5.80;2.87;;;15.10;99.90;;;;;;4178881;28;20187;-73
2022/06/04 05:30:57;;;;;;;5.90;3.13;;;15.20;99.90;;;;;;4179049;28;20940;-72
2022/06/04 05:32:58;;;;;;;4.53;3.70;;;15.10;99.90;;;;;;4178744;28;20187;-72
2022/06/04 05:34:58;;;;;;;8.60;4.87;;;14.90;99.90;;;;;;4178476;28;20951;-71
2022/06/04 05:37:00;;;;;;;9.77;6.10;;;14.80;99.90;;;;;;4178266;28;20189;-73
2022/06/04 05:39:00;;;;;;;5.37;4.27;;;14.80;99.90;;;;;;4178727;28;20180;-71
2022/06/04 05:41:07;;;;;;;5.20;4.07;;;14.90;99.90;;;;;;4178415;28;20211;-72
2022/06/04 05:43:08;;;;;;;8.90;4.60;;;14.80;99.90;;;;;;4178549;28;20263;-72
2022/06/04 05:45:09;;;;;;;6.37;3.70;;;14.80;99.90;;;;;;4178132;28;20184;-71
2022/06/04 05:47:09;;;;;;;7.97;5.17;;;14.90;99.90;;;;;;4176687;28;20207;-72
2022/06/04 05:49:12;;;;;;;5.70;4.27;;;14.90;99.90;;;;;;4178313;28;20929;-71
2022/06/04 05:51:29;;;;;;;4.73;3.80;;;14.90;99.90;;;;;;4178250;28;20210;-73
2022/06/04 05:53:30;;;;;;;4.10;3.70;;;14.90;99.90;;;;;;4177100;28;20196;-72
2022/06/04 05:55:30;;;;;;;5.47;3.63;;;14.90;99.90;;;;;;4163493;28;20188;-72
2022/06/04 05:57:31;;;;;;;3.80;3.47;;;14.90;99.90;;;;;;4161839;28;20543;-72
2022/06/04 05:59:32;;;;;;;3.40;3.10;;;15.10;99.90;;;;;;4161954;28;20191;-72
2022/06/04 06:01:34;;;;;;;5.57;2.97;;;15.20;99.90;;;;;;4161684;28;20235;-71
2022/06/04 06:03:34;;;;;;;3.33;2.70;;;15.10;99.90;;;;;;4161859;28;20856;-71
2022/06/04 06:05:44;;;;;;;4.13;3.00;;;15.10;99.90;;;;;;4161290;28;20177;-72
2022/06/04 06:07:44;;;;;;;3.03;2.73;;;15.10;99.90;;;;;;4161840;28;20263;-72
2022/06/04 06:09:45;;;;;;;4.43;3.27;;;15.20;99.90;;;;;;4162129;28;20199;-72
2022/06/04 06:11:48;;;;;;;3.30;2.20;;;15.40;99.90;;;;;;4161783;28;20181;-72
2022/06/04 06:13:50;;;;;;;3.50;2.53;;;15.50;99.90;;;;;;4161632;28;20276;-72
2022/06/04 06:15:51;;;;;;;3.27;2.47;;;15.50;99.90;;;;;;4161036;28;20260;-71
2022/06/04 06:17:51;;;;;;;2.70;2.50;;;15.50;99.90;;;;;;4161591;28;20196;-72
2022/06/04 06:19:53;;;;;;;4.17;2.80;;;15.60;99.90;;;;;;4161643;28;20205;-71
2022/06/04 06:21:53;;;;;;;3.77;3.00;;;15.50;99.90;;;;;;4161517;28;20236;-72
2022/06/04 06:23:54;;;;;;;4.50;2.77;;;15.60;99.90;;;;;;4161492;28;20197;-71
2022/06/04 06:25:54;;;;;;;4.83;2.73;;;15.80;99.90;;;;;;4160950;28;20644;-72
2022/06/04 06:27:55;;;;;;;5.60;2.90;;;15.90;99.90;;;;;;4161643;28;20181;-71
2022/06/04 06:29:55;;;;;;;5.40;2.40;;;16.10;99.90;;;;;;4161434;28;20176;-72
2022/06/04 06:31:58;;;;;;;4.97;2.70;;;16.00;99.90;;;;;;4161560;28;20268;-72
2022/06/04 06:33:59;;;;;;;4.30;3.03;;;15.70;99.90;;;;;;4161350;28;20585;-72
2022/06/04 06:36:02;;;;;;;3.73;2.47;;;15.70;99.90;;;;;;4160966;28;20180;-72
2022/06/04 06:38:03;;;;;;;3.17;2.80;;;15.70;99.90;;;;;;4163433;28;20177;-71
2022/06/04 06:40:04;;;;;;;4.47;2.30;;;15.80;99.90;;;;;;4164743;28;20191;-72
2022/06/04 06:42:05;;;;;;;6.00;3.20;;;15.90;99.90;;;;;;4164758;28;20266;-72
2022/06/04 06:44:06;;;;;;;3.53;1.80;;;16.20;99.90;;;;;;4179681;28;20624;-71
2022/06/04 06:46:10;;;;;;;3.30;2.20;;;16.30;99.90;;;;;;4180536;28;20172;-71
2022/06/04 06:48:11;;;;;;;3.10;2.10;;;16.60;99.90;;;;;;4181201;28;20179;-72
2022/06/04 06:50:14;;;;;;;3.33;2.60;;;16.80;99.90;;;;;;4179677;28;20184;-72
2022/06/04 06:52:16;;;;;;;2.60;2.40;;;16.60;99.90;;;;;;4181005;28;20238;-71
2022/06/04 06:54:19;;;;;;;5.13;2.50;;;16.70;99.90;;;;;;4181285;28;20206;-71
2022/06/04 06:56:26;;;;;;;7.37;2.90;;;16.70;99.90;;;;;;4180253;28;20188;-72
2022/06/04 06:58:26;;;;;;;4.97;2.43;;;16.80;99.90;;;;;;4181215;28;20617;-72
2022/06/04 07:00:27;;;;;;;3.40;2.60;;;16.90;99.90;;;;;;4181089;28;20242;-71
2022/06/04 07:02:27;;;;;;;2.60;2.40;;;17.10;99.90;;;;;;4180674;28;20257;-71
2022/06/04 07:04:29;;;;;;;3.57;2.60;;;17.20;99.90;;;;;;4180942;28;20562;-71
2022/06/04 07:06:36;;;;;;;2.90;2.60;;;17.40;99.90;;;;;;4180246;28;20802;-71
2022/06/04 07:08:40;;;;;;;2.57;1.80;;;17.50;99.90;;;;;;4180714;28;20176;-72
2022/06/04 07:10:40;;;;;;;3.33;2.30;;;17.60;99.90;;;;;;4180803;28;20179;-72
2022/06/04 07:12:42;;;;;;;2.70;2.00;;;17.70;99.90;;;;;;4180797;28;20559;-72
2022/06/04 07:14:43;;;;;;;3.37;1.67;;;17.70;99.90;;;;;;4181235;28;20756;-72
2022/06/04 07:16:44;;;;;;;3.63;1.90;;;17.90;99.90;;;;;;4180284;28;20184;-71
2022/06/04 07:18:45;;;;;;;1.90;1.70;;;17.90;99.90;;;;;;4180723;28;20588;-71
2022/06/04 07:20:46;;;;;;;3.23;2.10;;;17.70;99.90;;;;;;4180653;28;20202;-71
2022/06/04 07:22:46;;;;;;;2.53;1.83;;;17.70;99.90;;;;;;4180699;28;20172;-71
2022/06/04 07:24:47;;;;;;;3.33;2.10;;;17.70;99.90;;;;;;4180840;28;20196;-71
2022/06/04 07:26:48;;;;;;;4.13;2.10;;;17.80;99.90;;;;;;4180116;28;20711;-72
2022/06/04 07:28:49;;;;;;;3.20;2.20;;;17.80;99.90;;;;;;4180470;28;20560;-73
2022/06/04 07:30:50;;;;;;;2.13;1.83;;;17.80;99.90;;;;;;4180637;28;20169;-71
2022/06/04 07:32:51;;;;;;;12.37;2.20;;;18.00;99.90;;;;;;4180798;28;20603;-71
2022/06/04 07:34:51;;;;;;;3.60;1.83;;;18.10;99.90;;;;;;4180707;28;20180;-72
2022/06/04 07:36:52;;;;;;;2.67;1.83;;;18.30;99.90;;;;;;4178988;28;20204;-71
2022/06/04 07:38:53;;;;;;;3.13;1.60;;;18.40;99.90;;;;;;4180717;28;20199;-72
2022/06/04 07:40:54;;;;;;;2.37;1.50;;;18.70;99.90;;;;;;4180381;28;20180;-72
2022/06/04 07:42:55;;;;;;;3.77;1.70;;;18.60;99.00;;;;;;4180461;28;20659;-72
2022/06/04 07:44:57;;;;;;;2.23;1.67;;;18.80;99.90;;;;;;4180401;28;20184;-71
2022/06/04 07:46:58;;;;;;;4.87;1.70;;;18.90;99.90;;;;;;4179776;28;20179;-72
2022/06/04 07:49:01;;;;;;;1.87;1.50;;;19.10;99.90;;;;;;4179469;28;20174;-71
2022/06/04 07:51:04;;;;;;;1.70;1.33;;;19.50;99.90;;;;;;4180176;28;20184;-72
2022/06/04 07:53:05;;;;;;;4.27;1.77;;;19.50;98.20;;;;;;4174619;28;20227;-72
2022/06/04 07:55:07;;;;;;;2.27;1.53;;;19.70;99.90;;;;;;4163428;28;20188;-72
2022/06/04 07:57:08;;;;;;;2.70;1.93;;;19.60;96.50;;;;;;4163411;28;20610;-71
2022/06/04 07:59:11;;;;;;;3.10;1.97;;;19.60;99.90;;;;;;4163842;28;20173;-71
2022/06/04 08:01:14;;;;;;;2.37;1.50;;;19.50;99.90;;;;;;4163523;28;20277;-72
2022/06/04 08:03:15;;;;;;;3.10;2.03;;;19.40;99.90;;;;;;4163832;28;20205;-72
2022/06/04 08:05:16;;;;;;;2.27;1.50;;;19.30;99.90;;;;;;4163410;28;20173;-72
2022/06/04 08:07:16;;;;;;;3.53;1.80;;;19.40;99.90;;;;;;4163062;28;20185;-72
2022/06/04 08:09:17;;;;;;;2.93;1.60;;;19.30;99.90;;;;;;4163766;28;20189;-71
2022/06/04 08:11:36;;;;;;;2.10;1.57;;;19.20;99.90;;;;;;4163429;28;20314;-72
2022/06/04 08:13:37;;;;;;;2.43;1.93;;;19.60;99.90;;;;;;4163610;28;20237;-72
2022/06/04 08:15:37;;;;;;;2.43;1.97;;;19.70;98.70;;;;;;4162882;28;20239;-72
2022/06/04 08:17:38;;;;;;;2.50;1.80;;;19.60;96.60;;;;;;4163035;28;20185;-71
2022/06/04 08:19:39;;;;;;;3.10;2.17;;;19.70;96.00;;;;;;4163437;28;20200;-72
2022/06/04 08:21:40;;;;;;;3.10;1.90;;;19.80;97.10;;;;;;4161837;28;20895;-72
2022/06/04 08:23:43;;;;;;;2.87;1.70;;;20.30;98.30;;;;;;4163447;28;20193;-72
2022/06/04 08:25:47;;;;;;;1.80;1.70;;;20.50;96.10;;;;;;4162664;28;20181;-71
2022/06/04 08:27:48;;;;;;;2.47;1.83;;;21.00;92.90;;;;;;4163266;28;20656;-72
2022/06/04 08:29:48;;;;;;;3.07;1.77;;;21.10;92.20;;;;;;4163249;28;20181;-72
2022/06/04 08:31:49;;;;;;;1.40;1.30;;;21.20;92.50;;;;;;4163415;28;20271;-73
2022/06/04 08:33:50;;;;;;;3.47;1.77;;;21.30;92.60;;;;;;4163029;28;20930;-72
2022/06/04 08:35:50;;;;;;;4.00;1.50;;;21.40;92.50;;;;;;4162544;28;20644;-72
2022/06/04 08:37:51;;;;;;;3.30;1.53;;;21.50;91.80;;;;;;4163136;28;20181;-72
2022/06/04 08:39:51;;;;;;;4.50;1.60;;;21.60;90.10;;;;;;4163084;28;20195;-72
2022/06/04 08:42:10;;;;;;;1.87;1.60;;;22.00;90.20;;;;;;4163124;28;20204;-72
2022/06/04 08:44:20;;;;;;;3.00;1.90;;;21.90;88.20;;;;;;4163074;28;20660;-72
2022/06/04 08:46:41;;;;;;;3.13;1.60;;;21.70;88.30;;;;;;4172618;28;20190;-72
2022/06/04 08:48:42;;;;;;;4.17;1.77;;;21.70;89.40;;;;;;4179444;28;20171;-72
2022/06/04 08:50:44;;;;;;;4.60;1.73;;;21.80;90.20;;;;;;4179566;28;20168;-72
2022/06/04 08:52:48;;;;;;;2.07;1.70;;;21.60;88.30;;;;;;4179340;28;20177;-72
2022/06/04 08:57:32;;;;;;;3.00;1.70;;;21.50;91.30;;;;;;4178948;28;20488;-71
2022/06/04 08:59:49;;;;;;;4.33;1.60;;;21.50;89.40;;;;;;4179128;28;20195;-71
2022/06/04 09:01:55;;;;;;;1.63;1.30;;;21.80;85.50;;;;;;4178166;28;20211;-72
2022/06/04 09:04:31;;;;;;;1.97;1.73;;;22.30;86.00;;;;;;4179120;28;20797;-72
2022/06/04 09:06:54;;;;;;;1.80;1.50;;;22.30;88.30;;;;;;4167748;28;20176;-71
2022/06/04 09:09:11;;;;;;;2.03;1.80;;;22.80;85.20;;;;;;4178990;28;20177;-72
2022/06/04 09:11:38;;;;;;;2.80;1.60;;;22.90;77.20;;;;;;4178670;28;20184;-73
2022/06/04 09:14:01;;;;;;;1.53;1.40;;;22.90;78.90;;;;;;4178519;28;20208;-72
2022/06/04 09:16:32;;;;;;;2.03;1.50;;;23.10;76.30;;;;;;4178229;28;20169;-72
2022/06/04 09:18:35;;;;;;;2.70;1.40;;;23.00;86.10;;;;;;4176804;28;20246;-72
2022/06/04 09:20:48;;;;;;;3.50;1.70;;;22.60;82.50;;;;;;4178670;28;20188;-72
2022/06/04 09:22:51;;;;;;;2.00;1.40;;;22.50;88.00;;;;;;4179067;28;20188;-72
2022/06/04 09:24:52;;;;;;;2.10;1.50;;;22.40;76.10;;;;;;4178689;28;20207;-72
2022/06/04 09:27:05;;;;;;;3.50;1.60;;;22.40;79.40;;;;;;4179245;28;20177;-72
2022/06/04 09:29:23;;;;;;;3.47;1.40;;;23.00;73.80;;;;;;4181321;28;20719;-72
2022/06/04 09:31:39;;;;;;;3.00;1.70;;;23.40;76.60;;;;;;4180840;28;20316;-72
2022/06/04 09:33:45;;;;;;;1.40;1.30;;;23.10;72.50;;;;;;4180783;28;20196;-71
2022/06/04 09:35:46;;;;;;;4.40;1.70;;;22.80;76.30;;;;;;4180442;28;20184;-72
2022/06/04 09:37:51;;;;;;;2.33;1.63;;;23.20;76.30;;;;;;4180729;28;20253;-73
2022/06/04 09:40:06;;;;;;;1.63;1.53;;;23.60;73.30;;;;;;4181026;28;20660;-72
2022/06/04 09:42:15;;;;;;;2.27;1.80;;;24.00;70.70;;;;;;4180976;28;20219;-72
2022/06/04 09:44:17;;;;;;;1.97;1.80;;;24.50;69.30;;;;;;4181148;28;20199;-71
2022/06/04 09:46:24;;;;;;;2.60;1.73;;;24.40;69.10;;;;;;4180479;28;20176;-72
2022/06/04 09:48:29;;;;;;;2.60;1.70;;;24.10;69.80;;;;;;4180602;28;20167;-72
2022/06/04 09:50:31;;;;;;;2.00;1.80;;;24.10;70.50;;;;;;4180782;28;20184;-72
2022/06/04 09:52:42;;;;;;;2.80;1.73;;;24.10;77.00;;;;;;4180981;28;20208;-73
2022/06/04 09:54:42;;;;;;;3.43;2.33;;;24.00;74.40;;;;;;4169451;28;20196;-72
2022/06/04 09:56:49;;;;;;;2.40;1.83;;;23.80;72.90;;;;;;4163788;28;20252;-73
2022/06/04 09:58:50;;;;;;;4.23;2.03;;;23.50;74.40;;;;;;4164232;28;20263;-72
2022/06/04 10:01:16;;;;;;;2.30;2.10;;;23.50;75.90;;;;;;4164181;28;20197;-73
2022/06/04 10:03:18;;;;;;;2.70;2.13;;;24.20;74.00;;;;;;4156424;28;20400;-72
2022/06/04 10:05:20;;;;;;;3.20;2.03;;;24.40;75.90;;;;;;4164010;28;20185;-72
2022/06/04 10:07:33;;;;;;;2.23;1.80;;;24.60;66.30;;;;;;4163771;28;20185;-72
2022/06/04 10:09:55;;;;;;;2.63;2.10;;;24.90;64.40;;;;;;4163898;28;20180;-71
2022/06/04 10:11:57;;;;;;;2.63;1.80;;;25.40;65.10;;;;;;4163796;28;20251;-70
2022/06/04 10:13:58;;;;;;;2.47;2.03;;;25.30;63.80;;;;;;4164129;28;20196;-70
2022/06/04 10:15:59;;;;;;;2.37;2.17;;;25.40;62.90;;;;;;4163272;28;20730;-73
2022/06/04 10:18:20;;;;;;;3.73;2.80;;;25.40;63.50;;;;;;4163824;28;20173;-72
2022/06/04 10:20:24;;;;;;;3.00;2.43;;;25.80;61.20;;;;;;4163506;28;20204;-72
2022/06/04 10:22:26;;;;;;;2.30;2.10;;;25.30;62.80;;;;;;4163769;28;20241;-72
2022/06/04 10:24:29;;;;;;;3.53;2.50;;;25.20;64.60;;;;;;4164209;28;20200;-73
2022/06/04 10:27:02;;;;;;;4.27;2.70;;;24.70;64.80;;;;;;4163107;28;20184;-72
2022/06/04 10:29:44;;;;;;;2.43;2.23;;;24.80;63.90;;;;;;4163976;28;20180;-73
2022/06/04 10:31:59;;;;;;;2.33;2.13;;;24.70;63.80;;;;;;4163808;28;20593;-73
2022/06/04 10:34:32;;;;;;;3.57;2.50;;;24.10;67.20;;;;;;4163920;28;20208;-72
2022/06/04 10:36:45;;;;;;;2.30;2.10;;;24.90;63.60;;;;;;4163326;28;20645;-73
2022/06/04 10:39:14;;;;;;;2.47;2.20;;;25.10;62.70;;;;;;4179916;28;20995;-72
2022/06/04 10:41:35;;;;;;;3.20;2.03;;;25.70;58.80;;;;;;4178908;28;20200;-72
2022/06/04 10:43:57;;;;;;;2.97;1.80;;;26.20;56.00;;;;;;4180089;28;20204;-74
2022/06/04 10:46:17;;;;;;;3.90;3.53;;;26.00;55.90;;;;;;4178425;28;20183;-72
2022/06/04 10:48:38;;;;;;;3.10;2.63;;;26.10;54.50;;;;;;4180316;28;20188;-73
2022/06/04 10:53:49;;;;;;;4.40;4.10;;;25.60;49.50;;;;;;4179957;28;20808;-72
2022/06/04 10:55:55;;;;;;;1.70;1.60;;;24.10;53.40;;;;;;4170692;28;20192;-72
2022/06/04 10:58:27;;;;;;;2.10;2.00;;;23.70;55.90;;;;;;4180125;28;20188;-71
2022/06/04 11:00:50;;;;;;;1.30;1.20;;;23.90;51.80;;;;;;4178748;28;20817;-72
2022/06/04 11:03:05;;;;;;;3.63;3.37;;;23.80;56.40;;;;;;4179558;28;20296;-71
2022/06/04 11:05:19;;;;;;;1.60;1.50;;;23.90;53.10;;;;;;4177562;28;20191;-71